Time;durP1;ratioP1;P1;durP2;ratioP2;P2;SDS_P1;SDS_P2;PMS_P1;PMS_P2;Temp;Humidity;BMP_temperature;BMP_pressure;BME280_temperature;BME280_humidity;BME280_pressure;Samples;Min_cycle;Max_cycle;Signal;HPM_P1;HPM_P2
2021/11/26 00:02:02;;;;;;;84.43;29.27;;;5.70;99.90;;;;;;5034342;28;20037;-63
2021/11/26 00:04:27;;;;;;;84.63;29.45;;;5.70;99.90;;;;;;5035107;28;20025;-63
2021/11/26 00:06:53;;;;;;;72.15;25.95;;;5.70;99.90;;;;;;5032249;28;20044;-60
2021/11/26 00:09:19;;;;;;;77.15;29.33;;;5.70;99.90;;;;;;5036666;28;20034;-62
2021/11/26 00:11:44;;;;;;;71.28;28.30;;;5.70;99.90;;;;;;5036634;28;20032;-63
2021/11/26 00:14:23;;;;;;;74.88;29.20;;;5.80;99.90;;;;;;5033112;28;20558;-63
2021/11/26 00:16:56;;;;;;;84.63;29.20;;;5.70;99.90;;;;;;5035195;28;20025;-63
2021/11/26 00:19:21;;;;;;;81.78;29.20;;;5.70;99.90;;;;;;5034801;28;20029;-63
2021/11/26 00:21:47;;;;;;;72.57;29.35;;;5.70;99.90;;;;;;5028244;28;20040;-62
2021/11/26 00:24:13;;;;;;;82.93;29.90;;;5.80;99.90;;;;;;5021448;28;20506;-62
2021/11/26 00:26:39;;;;;;;72.45;28.70;;;5.80;99.90;;;;;;5037253;28;20071;-63
2021/11/26 00:29:05;;;;;;;77.93;30.73;;;5.70;99.90;;;;;;5032338;28;20112;-63
2021/11/26 00:31:31;;;;;;;84.85;27.85;;;5.70;99.90;;;;;;5041163;28;20022;-62
2021/11/26 00:33:57;;;;;;;87.90;31.55;;;5.70;99.90;;;;;;5032115;28;20040;-60
2021/11/26 00:36:23;;;;;;;84.07;30.80;;;5.70;99.90;;;;;;5032739;28;20037;-60
2021/11/26 00:38:48;;;;;;;77.50;29.45;;;5.70;99.90;;;;;;5032436;28;20099;-64
2021/11/26 00:41:14;;;;;;;82.75;29.60;;;5.80;99.90;;;;;;5034146;28;20041;-62
2021/11/26 00:43:39;;;;;;;93.38;32.95;;;5.80;99.90;;;;;;5037761;28;20021;-64
2021/11/26 00:46:05;;;;;;;88.30;31.05;;;5.80;99.90;;;;;;5036910;28;20491;-62
2021/11/26 00:48:31;;;;;;;97.43;35.13;;;5.80;99.90;;;;;;5035155;28;20347;-64
2021/11/26 00:50:57;;;;;;;95.88;34.47;;;5.80;99.90;;;;;;5036211;28;20593;-62
2021/11/26 00:53:23;;;;;;;84.25;32.40;;;5.80;99.90;;;;;;5035364;28;20029;-63
2021/11/26 00:55:48;;;;;;;89.20;32.55;;;5.70;99.90;;;;;;5035412;28;20475;-64
2021/11/26 00:58:14;;;;;;;89.72;34.53;;;5.60;99.90;;;;;;5035153;28;20037;-62
2021/11/26 01:00:39;;;;;;;87.47;33.47;;;5.60;99.90;;;;;;5036763;28;20033;-62
2021/11/26 01:03:06;;;;;;;84.18;30.85;;;5.50;99.90;;;;;;5035359;28;20099;-63
2021/11/26 01:05:32;;;;;;;92.63;32.17;;;5.50;99.90;;;;;;5038179;28;20538;-64
2021/11/26 01:07:58;;;;;;;79.20;31.05;;;5.40;99.90;;;;;;5036750;28;20067;-64
2021/11/26 01:10:24;;;;;;;90.82;33.88;;;5.40;99.90;;;;;;5037134;28;20055;-63
2021/11/26 01:12:50;;;;;;;94.82;33.10;;;5.40;99.90;;;;;;5038413;28;20147;-64
2021/11/26 01:15:21;;;;;;;103.50;35.28;;;5.40;99.90;;;;;;5033079;28;20041;-61
2021/11/26 01:17:47;;;;;;;91.20;33.90;;;5.30;99.90;;;;;;5034446;28;20026;-63
2021/11/26 01:20:15;;;;;;;95.72;36.75;;;5.30;99.90;;;;;;5036122;28;20052;-60
2021/11/26 01:22:42;;;;;;;96.10;35.60;;;5.20;99.90;;;;;;5033387;28;20055;-63
2021/11/26 01:25:09;;;;;;;95.78;35.17;;;5.20;99.90;;;;;;5033570;28;20025;-62
2021/11/26 01:27:35;;;;;;;102.53;35.88;;;5.20;99.90;;;;;;5033740;28;20018;-63
2021/11/26 01:30:09;;;;;;;94.32;36.28;;;5.20;99.90;;;;;;5034206;28;20091;-60
2021/11/26 01:32:35;;;;;;;93.72;35.05;;;5.20;99.90;;;;;;5032219;28;20483;-63
2021/11/26 01:35:00;;;;;;;95.43;33.58;;;5.30;99.90;;;;;;5035415;28;20029;-62
2021/11/26 01:37:26;;;;;;;91.88;34.20;;;5.30;99.90;;;;;;5031749;28;20033;-64
2021/11/26 01:39:52;;;;;;;92.95;34.55;;;5.30;99.90;;;;;;5033389;28;20188;-64
2021/11/26 01:42:17;;;;;;;96.70;35.22;;;5.30;99.90;;;;;;5035603;28;20033;-63
2021/11/26 01:44:43;;;;;;;86.45;34.10;;;5.30;99.90;;;;;;5033979;28;20129;-62
2021/11/26 01:47:12;;;;;;;97.25;34.30;;;5.30;99.90;;;;;;5032102;28;20417;-63
2021/11/26 01:49:38;;;;;;;106.85;36.38;;;5.30;99.90;;;;;;5032791;28;20030;-63
2021/11/26 01:52:04;;;;;;;108.05;36.95;;;5.20;99.90;;;;;;5034896;28;20037;-64
2021/11/26 01:54:29;;;;;;;90.30;33.35;;;5.20;99.90;;;;;;5033341;28;20420;-62
2021/11/26 01:56:55;;;;;;;92.22;32.35;;;5.20;99.90;;;;;;5033306;28;20033;-64
2021/11/26 01:59:20;;;;;;;93.05;33.80;;;5.20;99.90;;;;;;5033288;28;20552;-62
2021/11/26 02:01:46;;;;;;;97.10;33.65;;;5.10;99.90;;;;;;5037193;28;20032;-63
2021/11/26 02:04:12;;;;;;;84.13;33.35;;;5.10;99.90;;;;;;5032645;28;20575;-63
2021/11/26 02:06:38;;;;;;;93.38;33.92;;;5.10;99.90;;;;;;5032337;28;20083;-63
2021/11/26 02:09:03;;;;;;;94.20;34.30;;;5.10;99.90;;;;;;5033173;28;20033;-64
2021/11/26 02:11:29;;;;;;;86.85;32.47;;;5.10;99.90;;;;;;5036253;28;20036;-63
2021/11/26 02:13:54;;;;;;;82.60;30.30;;;5.10;99.90;;;;;;5035706;28;20029;-63
2021/11/26 02:16:20;;;;;;;83.05;30.70;;;5.00;99.90;;;;;;5033325;28;20052;-61
2021/11/26 02:18:49;;;;;;;91.28;30.35;;;5.10;99.90;;;;;;5035945;28;20025;-64
2021/11/26 02:21:18;;;;;;;75.97;29.02;;;5.10;99.90;;;;;;5036118;28;20063;-64
2021/11/26 02:23:43;;;;;;;83.13;29.67;;;5.10;99.90;;;;;;5033393;28;20024;-64
2021/11/26 02:26:09;;;;;;;75.40;28.45;;;5.00;99.90;;;;;;5033252;28;20037;-63
2021/11/26 02:28:35;;;;;;;75.13;26.55;;;5.00;99.90;;;;;;5036216;28;20522;-63
2021/11/26 02:31:00;;;;;;;81.43;26.00;;;4.90;99.90;;;;;;5031775;28;20040;-64
2021/11/26 02:33:26;;;;;;;78.47;27.45;;;4.90;99.90;;;;;;5031867;28;20037;-62
2021/11/26 02:35:55;;;;;;;80.40;28.08;;;4.90;99.90;;;;;;5031324;28;20033;-63
2021/11/26 02:38:23;;;;;;;65.82;24.80;;;4.80;99.90;;;;;;5034382;28;20021;-64
2021/11/26 02:40:49;;;;;;;67.25;25.15;;;4.70;99.90;;;;;;5035558;28;20046;-64
2021/11/26 02:43:16;;;;;;;68.45;25.40;;;4.70;99.90;;;;;;5037310;28;20034;-63
2021/11/26 02:45:44;;;;;;;74.22;25.15;;;4.70;99.90;;;;;;5041197;28;20104;-64
2021/11/26 02:48:13;;;;;;;76.78;25.23;;;4.70;99.90;;;;;;5032957;28;20068;-63
2021/11/26 02:50:39;;;;;;;74.53;26.55;;;4.80;99.90;;;;;;5033435;28;20031;-62
2021/11/26 02:53:06;;;;;;;63.85;23.58;;;4.80;99.90;;;;;;5037866;28;20040;-64
2021/11/26 02:55:33;;;;;;;67.03;23.10;;;4.80;99.90;;;;;;5032461;28;20408;-64
2021/11/26 02:58:00;;;;;;;67.30;24.02;;;4.90;99.90;;;;;;5036799;28;20036;-62
2021/11/26 03:00:29;;;;;;;69.18;23.33;;;4.90;99.90;;;;;;5034149;28;20029;-63
2021/11/26 03:02:56;;;;;;;68.78;22.50;;;4.90;99.90;;;;;;5031773;28;20021;-64
2021/11/26 03:05:22;;;;;;;65.05;24.30;;;5.00;99.90;;;;;;5030559;28;20052;-63
2021/11/26 03:07:49;;;;;;;63.85;23.00;;;5.00;99.90;;;;;;5036134;28;20040;-64
2021/11/26 03:10:18;;;;;;;60.38;21.95;;;5.10;99.90;;;;;;5031571;28;20111;-64
2021/11/26 03:12:56;;;;;;;65.30;22.60;;;5.20;99.90;;;;;;5036529;28;20026;-63
2021/11/26 03:15:21;;;;;;;62.05;21.42;;;5.20;99.90;;;;;;5038780;28;20033;-63
2021/11/26 03:17:48;;;;;;;62.72;23.35;;;5.20;99.90;;;;;;5031893;28;20060;-63
2021/11/26 03:20:14;;;;;;;64.45;24.50;;;5.20;99.90;;;;;;5039715;28;20036;-63
2021/11/26 03:22:40;;;;;;;61.05;23.70;;;5.20;99.90;;;;;;5034318;28;20032;-60
2021/11/26 03:25:06;;;;;;;53.40;23.00;;;5.20;99.90;;;;;;5033983;28;20033;-64
2021/11/26 03:27:33;;;;;;;62.05;24.52;;;5.20;99.90;;;;;;5040384;28;20378;-62
2021/11/26 03:29:58;;;;;;;59.97;21.02;;;5.20;99.90;;;;;;5035440;28;20439;-63
2021/11/26 03:32:24;;;;;;;59.50;24.17;;;5.20;99.90;;;;;;5039285;28;20041;-64
2021/11/26 03:34:50;;;;;;;60.83;23.80;;;5.30;99.90;;;;;;5038343;28;20381;-63
2021/11/26 03:37:15;;;;;;;57.70;23.58;;;5.30;99.90;;;;;;5037417;28;20045;-63
2021/11/26 03:39:41;;;;;;;59.03;23.67;;;5.20;99.90;;;;;;5033130;28;20050;-63
2021/11/26 03:42:06;;;;;;;65.13;23.98;;;5.30;99.90;;;;;;5038409;28;20453;-66
2021/11/26 03:44:32;;;;;;;57.97;23.42;;;5.30;99.90;;;;;;5033448;28;20036;-63
2021/11/26 03:46:58;;;;;;;61.15;23.10;;;5.20;99.90;;;;;;5036024;28;20017;-61
2021/11/26 03:49:23;;;;;;;64.80;24.83;;;5.20;99.90;;;;;;5039290;28;20096;-63
2021/11/26 03:51:49;;;;;;;61.90;23.45;;;5.20;99.90;;;;;;5035678;28;20574;-63
2021/11/26 03:54:14;;;;;;;62.38;24.10;;;5.20;99.90;;;;;;5034148;28;20029;-63
2021/11/26 03:56:40;;;;;;;60.38;23.10;;;5.20;99.90;;;;;;5039819;28;20487;-62
2021/11/26 03:59:06;;;;;;;61.05;24.00;;;5.20;99.90;;;;;;5034903;28;20032;-64
2021/11/26 04:01:35;;;;;;;66.53;24.23;;;5.30;99.90;;;;;;5035374;28;20487;-63
2021/11/26 04:04:02;;;;;;;63.30;23.90;;;5.20;99.90;;;;;;5045354;23;20049;-63
2021/11/26 04:06:28;;;;;;;57.17;23.48;;;5.30;99.90;;;;;;5023598;28;20484;-63
2021/11/26 04:08:53;;;;;;;64.82;24.98;;;5.20;99.90;;;;;;5026277;28;20107;-63
2021/11/26 04:11:19;;;;;;;65.50;25.63;;;5.20;99.90;;;;;;5026943;28;20407;-62
2021/11/26 04:13:45;;;;;;;72.50;29.15;;;5.20;99.90;;;;;;5013853;28;20391;-63
2021/11/26 04:16:14;;;;;;;69.15;26.25;;;5.20;99.90;;;;;;5030943;28;20036;-62
2021/11/26 04:18:43;;;;;;;57.88;25.58;;;5.20;99.90;;;;;;5026138;28;20049;-63
2021/11/26 04:21:08;;;;;;;62.90;24.02;;;5.20;99.90;;;;;;5027446;28;20484;-62
2021/11/26 04:23:34;;;;;;;64.30;27.35;;;5.20;99.90;;;;;;5029314;28;20044;-63
2021/11/26 04:26:00;;;;;;;58.88;25.33;;;5.30;99.90;;;;;;5016830;28;20040;-63
2021/11/26 04:28:26;;;;;;;66.38;25.77;;;5.30;99.90;;;;;;5027349;28;20021;-62
2021/11/26 04:30:53;;;;;;;54.28;23.95;;;5.30;99.90;;;;;;5028213;28;20029;-63
2021/11/26 04:33:18;;;;;;;57.33;25.95;;;5.30;99.90;;;;;;5028556;28;20445;-62
2021/11/26 04:35:50;;;;;;;62.42;25.75;;;5.40;99.90;;;;;;5030377;28;20035;-63
2021/11/26 04:38:17;;;;;;;63.92;25.55;;;5.40;99.90;;;;;;5028516;28;20048;-63
2021/11/26 04:40:43;;;;;;;59.83;25.48;;;5.40;99.90;;;;;;5030134;28;20496;-63
2021/11/26 04:43:09;;;;;;;61.35;26.13;;;5.40;99.90;;;;;;5027188;28;20036;-64
2021/11/26 04:45:35;;;;;;;62.25;26.30;;;5.30;99.90;;;;;;5030483;28;20104;-63
2021/11/26 04:48:00;;;;;;;56.20;25.90;;;5.30;99.90;;;;;;5027629;28;20040;-63
2021/11/26 04:50:26;;;;;;;57.63;26.75;;;5.30;99.90;;;;;;5025524;28;20036;-63
2021/11/26 04:52:53;;;;;;;60.83;25.25;;;5.30;99.90;;;;;;5012351;28;20056;-62
2021/11/26 04:55:20;;;;;;;57.58;27.05;;;5.40;99.90;;;;;;5028825;28;20035;-62
2021/11/26 04:57:46;;;;;;;58.45;26.08;;;5.40;99.90;;;;;;5030009;28;20048;-62
2021/11/26 05:00:15;;;;;;;60.33;26.30;;;5.40;99.90;;;;;;5026516;28;20036;-61
2021/11/26 05:02:44;;;;;;;64.88;27.65;;;5.40;99.90;;;;;;5028584;28;20087;-62
2021/11/26 05:05:10;;;;;;;72.03;28.35;;;5.40;99.90;;;;;;5028788;28;20034;-62
2021/11/26 05:07:36;;;;;;;58.17;25.75;;;5.40;99.90;;;;;;5028508;28;20064;-63
2021/11/26 05:10:04;;;;;;;56.25;25.95;;;5.40;99.90;;;;;;5028101;28;20100;-62
2021/11/26 05:12:35;;;;;;;55.17;26.38;;;5.40;99.90;;;;;;5029064;28;20388;-61
2021/11/26 05:15:01;;;;;;;57.40;27.55;;;5.40;99.90;;;;;;5027548;28;20030;-63
2021/11/26 05:17:26;;;;;;;62.00;27.95;;;5.40;99.90;;;;;;5030574;28;20025;-63
2021/11/26 05:19:52;;;;;;;57.38;29.02;;;5.40;99.90;;;;;;5029124;28;20128;-62
2021/11/26 05:22:17;;;;;;;53.75;24.77;;;5.40;99.90;;;;;;5025160;28;20033;-63
2021/11/26 05:24:43;;;;;;;60.00;26.42;;;5.40;99.90;;;;;;5011653;28;20024;-62
2021/11/26 05:27:08;;;;;;;59.08;26.02;;;5.40;99.90;;;;;;5026038;28;20109;-63
2021/11/26 05:29:34;;;;;;;54.88;26.88;;;5.40;99.90;;;;;;5027884;28;20025;-62
2021/11/26 05:32:00;;;;;;;50.83;24.95;;;5.40;99.90;;;;;;5024624;28;20679;-62
2021/11/26 05:34:25;;;;;;;51.80;26.10;;;5.40;99.90;;;;;;5028846;28;20068;-62
2021/11/26 05:36:51;;;;;;;58.67;27.15;;;5.40;99.90;;;;;;5028477;28;20042;-62
2021/11/26 05:39:16;;;;;;;58.08;24.20;;;5.30;99.90;;;;;;5025931;28;20065;-62
2021/11/26 05:41:42;;;;;;;51.58;24.98;;;5.40;99.90;;;;;;5029028;28;20407;-63
2021/11/26 05:44:07;;;;;;;66.63;29.88;;;5.40;99.90;;;;;;5028952;28;20072;-63
2021/11/26 05:46:33;;;;;;;56.72;28.52;;;5.40;99.90;;;;;;5025049;28;20442;-63
2021/11/26 05:48:58;;;;;;;53.88;25.92;;;5.40;99.90;;;;;;5028299;28;20056;-63
2021/11/26 05:51:24;;;;;;;53.17;25.77;;;5.40;99.90;;;;;;5026030;28;20029;-62
2021/11/26 05:53:50;;;;;;;57.75;24.40;;;5.40;99.90;;;;;;5028041;28;20397;-63
2021/11/26 05:56:15;;;;;;;45.78;23.85;;;5.50;99.90;;;;;;5026401;28;20056;-63
2021/11/26 05:58:41;;;;;;;50.72;25.48;;;5.50;99.90;;;;;;5026248;28;20029;-63
2021/11/26 06:01:06;;;;;;;51.67;23.42;;;5.50;99.90;;;;;;5026399;28;20033;-62
2021/11/26 06:03:32;;;;;;;46.72;22.90;;;5.50;99.90;;;;;;5028181;28;20553;-62
2021/11/26 06:05:58;;;;;;;44.25;22.27;;;5.50;99.90;;;;;;5027589;28;20979;-62
2021/11/26 06:08:23;;;;;;;43.90;20.23;;;5.50;99.90;;;;;;5028281;28;20109;-62
2021/11/26 06:10:49;;;;;;;38.85;19.42;;;5.50;99.90;;;;;;5029196;28;20084;-62
2021/11/26 06:13:14;;;;;;;41.53;20.30;;;5.50;99.90;;;;;;5027881;28;20028;-61
2021/11/26 06:15:40;;;;;;;35.88;18.00;;;5.60;99.90;;;;;;5028864;28;20086;-62
2021/11/26 06:18:05;;;;;;;35.55;18.20;;;5.60;99.90;;;;;;5028994;28;20036;-62
2021/11/26 06:20:31;;;;;;;27.30;15.35;;;5.60;99.90;;;;;;5027382;28;20411;-62
2021/11/26 06:22:56;;;;;;;33.03;16.02;;;5.60;99.90;;;;;;5028209;28;20021;-58
2021/11/26 06:25:23;;;;;;;24.55;15.15;;;5.60;99.90;;;;;;5028645;28;20026;-62
2021/11/26 06:27:49;;;;;;;29.10;15.35;;;5.60;99.90;;;;;;5023625;28;20021;-61
2021/11/26 06:30:17;;;;;;;31.23;16.27;;;5.50;99.90;;;;;;5025892;28;20036;-61
2021/11/26 06:32:44;;;;;;;29.20;14.88;;;5.60;99.90;;;;;;5026300;28;20386;-62
2021/11/26 06:35:11;;;;;;;29.52;13.27;;;5.50;99.90;;;;;;5027269;28;20037;-61
2021/11/26 06:37:37;;;;;;;32.20;15.63;;;5.50;99.90;;;;;;5028662;28;20041;-61
2021/11/26 06:40:04;;;;;;;25.65;14.25;;;5.50;99.90;;;;;;5027543;28;20036;-61
2021/11/26 06:42:30;;;;;;;26.60;14.10;;;5.50;99.90;;;;;;5029432;28;20071;-61
2021/11/26 06:44:56;;;;;;;30.90;14.88;;;5.50;99.90;;;;;;5028045;28;20057;-60
2021/11/26 06:47:21;;;;;;;20.88;11.90;;;5.50;99.90;;;;;;5028428;28;20075;-60
2021/11/26 06:49:48;;;;;;;18.27;10.15;;;5.40;99.90;;;;;;5028521;28;20407;-60
2021/11/26 06:52:14;;;;;;;20.00;11.57;;;5.30;99.90;;;;;;5008238;28;20029;-61
2021/11/26 06:54:40;;;;;;;22.92;11.48;;;5.30;99.90;;;;;;5023196;28;20045;-60
2021/11/26 06:57:06;;;;;;;31.52;11.73;;;5.30;99.90;;;;;;5032014;28;20029;-61
2021/11/26 06:59:31;;;;;;;15.93;9.98;;;5.20;99.90;;;;;;5032619;28;20108;-60
2021/11/26 07:01:57;;;;;;;19.88;10.32;;;5.20;99.90;;;;;;5032472;28;20483;-60
2021/11/26 07:04:23;;;;;;;13.95;7.93;;;5.20;99.90;;;;;;5030405;28;20040;-61
2021/11/26 07:06:49;;;;;;;15.93;9.23;;;5.10;99.90;;;;;;5032571;28;20018;-61
2021/11/26 07:09:14;;;;;;;13.68;9.18;;;5.20;99.90;;;;;;5031747;28;20032;-62
2021/11/26 07:11:40;;;;;;;16.40;8.15;;;5.10;99.90;;;;;;5032253;28;20131;-61
2021/11/26 07:14:05;;;;;;;18.38;9.30;;;5.10;99.90;;;;;;5031995;28;20483;-63
2021/11/26 07:16:31;;;;;;;20.77;10.52;;;5.20;99.90;;;;;;5031749;28;20112;-61
2021/11/26 07:18:58;;;;;;;22.55;11.45;;;5.20;99.90;;;;;;5031083;28;20033;-62
2021/11/26 07:21:23;;;;;;;28.15;11.43;;;5.20;99.90;;;;;;5010105;28;20029;-62
2021/11/26 07:23:49;;;;;;;27.48;13.07;;;5.10;99.90;;;;;;5032239;28;20036;-62
2021/11/26 07:26:15;;;;;;;22.23;12.43;;;5.10;99.90;;;;;;5029891;28;20049;-62
2021/11/26 07:28:40;;;;;;;21.50;13.15;;;5.10;99.90;;;;;;5029006;28;20109;-62
2021/11/26 07:31:06;;;;;;;24.33;13.43;;;5.10;99.90;;;;;;5029821;28;20025;-62
2021/11/26 07:33:31;;;;;;;28.90;13.40;;;5.10;99.90;;;;;;5025875;28;20040;-62
2021/11/26 07:35:57;;;;;;;20.08;11.55;;;5.20;99.90;;;;;;5022384;28;20053;-63
2021/11/26 07:38:23;;;;;;;23.45;12.38;;;5.20;99.90;;;;;;5029475;28;20512;-62
2021/11/26 07:40:52;;;;;;;19.05;11.27;;;5.10;99.90;;;;;;5025084;28;20411;-62
2021/11/26 07:43:18;;;;;;;17.95;9.57;;;5.10;99.90;;;;;;5031356;28;20036;-62
2021/11/26 07:45:43;;;;;;;15.57;8.27;;;5.10;99.90;;;;;;5029839;28;20025;-63
2021/11/26 07:48:09;;;;;;;15.63;8.35;;;5.00;99.90;;;;;;5027298;28;20406;-63
2021/11/26 07:50:34;;;;;;;13.70;7.82;;;5.00;99.90;;;;;;5029398;28;20510;-62
2021/11/26 07:53:00;;;;;;;14.50;7.47;;;5.00;99.90;;;;;;5029135;28;20041;-62
2021/11/26 07:55:26;;;;;;;12.55;6.88;;;4.90;99.90;;;;;;5032663;28;20056;-62
2021/11/26 07:57:51;;;;;;;15.50;8.05;;;4.90;99.90;;;;;;5030913;28;20813;-62
2021/11/26 08:00:17;;;;;;;12.40;7.40;;;4.90;99.90;;;;;;5026726;28;20030;-62
2021/11/26 08:02:43;;;;;;;15.73;8.00;;;4.90;99.90;;;;;;5016971;28;20479;-62
2021/11/26 08:05:09;;;;;;;14.70;7.10;;;4.90;99.90;;;;;;5031120;28;20542;-63
2021/11/26 08:07:36;;;;;;;14.90;7.88;;;4.90;99.90;;;;;;5034372;28;20483;-63
2021/11/26 08:10:04;;;;;;;16.92;7.85;;;5.00;99.90;;;;;;5030371;28;20017;-63
2021/11/26 08:12:30;;;;;;;17.13;7.57;;;5.00;99.90;;;;;;5032230;28;20030;-63
2021/11/26 08:14:56;;;;;;;17.52;8.38;;;5.00;99.90;;;;;;5036216;28;20380;-63
2021/11/26 08:17:22;;;;;;;15.60;8.35;;;4.90;99.90;;;;;;5034197;28;20021;-63
2021/11/26 08:19:48;;;;;;;17.15;8.85;;;4.90;99.90;;;;;;5033408;28;20502;-62
2021/11/26 08:22:15;;;;;;;19.27;9.70;;;4.90;99.90;;;;;;5031422;28;20030;-62
2021/11/26 08:24:41;;;;;;;19.13;8.93;;;4.90;99.90;;;;;;5017465;28;20021;-62
2021/11/26 08:27:06;;;;;;;23.23;11.95;;;4.90;99.90;;;;;;5032527;28;20399;-62
2021/11/26 08:29:32;;;;;;;23.95;11.73;;;4.90;99.90;;;;;;5028160;28;20030;-63
2021/11/26 08:31:59;;;;;;;26.83;12.18;;;5.00;99.90;;;;;;5034683;28;20060;-61
2021/11/26 08:34:25;;;;;;;26.35;12.27;;;5.00;99.90;;;;;;5013068;28;20029;-63
2021/11/26 08:36:50;;;;;;;25.33;12.43;;;5.00;99.90;;;;;;5033528;28;20063;-62
2021/11/26 08:39:16;;;;;;;28.30;13.82;;;5.00;99.90;;;;;;5031838;28;20253;-64
2021/11/26 08:41:41;;;;;;;27.20;12.13;;;5.00;99.90;;;;;;5014921;28;20056;-62
2021/11/26 08:44:07;;;;;;;26.02;12.52;;;5.00;99.90;;;;;;5028624;28;20022;-62
2021/11/26 08:46:33;;;;;;;29.25;12.63;;;5.00;99.90;;;;;;5037019;28;20101;-62
2021/11/26 08:48:59;;;;;;;33.00;14.00;;;5.10;99.90;;;;;;5029456;28;20104;-63
2021/11/26 08:51:27;;;;;;;25.60;12.10;;;5.10;99.90;;;;;;5038163;28;20039;-61
2021/11/26 08:53:53;;;;;;;29.13;13.65;;;5.10;99.90;;;;;;5032555;28;20376;-61
2021/11/26 08:56:21;;;;;;;33.40;13.23;;;5.20;99.90;;;;;;5032995;28;20017;-61
2021/11/26 08:58:47;;;;;;;31.83;13.70;;;5.10;99.90;;;;;;5027876;28;20057;-63
2021/11/26 09:01:16;;;;;;;34.40;13.27;;;5.20;99.90;;;;;;5014151;28;20064;-64
2021/11/26 09:03:44;;;;;;;32.63;13.05;;;5.20;99.90;;;;;;5030312;28;20028;-63
2021/11/26 09:06:10;;;;;;;35.50;14.23;;;5.30;99.90;;;;;;5035253;28;20021;-60
2021/11/26 09:08:36;;;;;;;32.90;13.52;;;5.30;99.90;;;;;;5028311;28;20024;-63
2021/11/26 09:11:02;;;;;;;34.97;13.25;;;5.40;99.90;;;;;;5030378;28;20044;-64
2021/11/26 09:13:28;;;;;;;34.50;14.00;;;5.40;99.90;;;;;;5031405;28;20025;-62
2021/11/26 09:15:55;;;;;;;33.33;14.68;;;5.40;99.90;;;;;;5031778;28;20087;-64
2021/11/26 09:18:20;;;;;;;34.28;13.77;;;5.40;99.90;;;;;;5032407;28;20120;-63
2021/11/26 09:20:50;;;;;;;38.75;13.80;;;5.40;99.90;;;;;;5035344;28;20120;-63
2021/11/26 09:23:16;;;;;;;36.75;13.73;;;5.50;99.90;;;;;;5032688;28;20029;-64
2021/11/26 09:25:42;;;;;;;36.40;14.73;;;5.50;99.90;;;;;;5028239;28;20021;-63
2021/11/26 09:28:07;;;;;;;38.28;13.70;;;5.50;99.90;;;;;;5030780;28;20078;-64
2021/11/26 09:30:33;;;;;;;37.25;12.60;;;5.50;99.90;;;;;;5030874;28;20029;-63
2021/11/26 09:32:59;;;;;;;32.08;13.80;;;5.50;99.90;;;;;;5031930;28;20040;-63
2021/11/26 09:35:26;;;;;;;32.72;12.77;;;5.50;99.90;;;;;;5032066;28;20033;-63
2021/11/26 09:37:52;;;;;;;28.45;11.52;;;5.50;99.90;;;;;;5031988;28;20045;-62
2021/11/26 09:40:20;;;;;;;30.42;12.60;;;5.50;99.90;;;;;;5031267;28;20104;-64
2021/11/26 09:42:46;;;;;;;29.83;11.95;;;5.60;99.90;;;;;;5031305;28;20471;-62
2021/11/26 09:45:19;;;;;;;28.75;11.43;;;5.60;99.90;;;;;;5030050;28;20513;-64
2021/11/26 09:47:45;;;;;;;30.00;12.15;;;5.60;99.90;;;;;;5025556;28;20395;-62
2021/11/26 09:50:11;;;;;;;37.63;12.77;;;5.60;99.90;;;;;;5028272;28;20021;-63
2021/11/26 09:52:39;;;;;;;33.00;11.80;;;5.60;99.90;;;;;;5011710;28;20021;-64
2021/11/26 09:55:06;;;;;;;36.28;12.75;;;5.70;99.90;;;;;;5026423;28;20108;-63
2021/11/26 09:57:31;;;;;;;29.27;10.85;;;5.70;99.90;;;;;;5031866;28;20029;-63
2021/11/26 09:59:57;;;;;;;31.27;10.77;;;5.70;99.90;;;;;;5030341;28;20029;-64
2021/11/26 10:02:23;;;;;;;32.30;10.32;;;5.70;99.90;;;;;;5031037;28;20037;-62
2021/11/26 10:05:07;;;;;;;26.95;10.40;;;5.70;99.90;;;;;;5068362;22;20461;-62
2021/11/26 10:07:47;;;;;;;24.88;9.10;;;5.70;99.90;;;;;;5047422;28;20056;-62
2021/11/26 10:10:19;;;;;;;24.77;10.00;;;5.70;99.90;;;;;;5051957;28;20177;-62
2021/11/26 10:12:55;;;;;;;29.70;9.25;;;5.70;99.90;;;;;;5048076;28;20101;-59
2021/11/26 10:15:42;;;;;;;31.33;9.20;;;5.70;99.90;;;;;;5042553;28;20029;-62
2021/11/26 10:18:09;;;;;;;32.85;9.90;;;5.70;99.90;;;;;;5043025;28;20454;-62
2021/11/26 10:20:37;;;;;;;21.38;7.20;;;5.70;99.90;;;;;;5041505;28;20076;-63
2021/11/26 10:23:18;;;;;;;23.95;8.38;;;5.70;99.90;;;;;;5030756;28;20048;-60
2021/11/26 10:25:44;;;;;;;25.00;8.93;;;5.70;99.90;;;;;;5042590;28;20036;-62
2021/11/26 10:28:10;;;;;;;21.52;7.00;;;5.70;99.90;;;;;;5050214;28;20021;-63
2021/11/26 10:30:39;;;;;;;25.10;7.43;;;5.70;99.90;;;;;;5051296;28;20380;-63
2021/11/26 10:33:12;;;;;;;23.00;6.10;;;5.70;99.90;;;;;;5046171;28;20095;-62
2021/11/26 10:35:40;;;;;;;17.65;6.53;;;5.70;99.90;;;;;;5029947;28;20037;-60
2021/11/26 10:38:14;;;;;;;19.58;6.05;;;5.70;99.90;;;;;;5053293;28;20017;-61
2021/11/26 10:40:48;;;;;;;18.55;5.40;;;5.70;99.90;;;;;;5057301;28;20029;-62
2021/11/26 10:43:17;;;;;;;19.42;5.93;;;5.80;99.90;;;;;;5053515;28;20027;-60
2021/11/26 10:46:13;;;;;;;20.38;5.50;;;5.70;99.90;;;;;;5052914;28;20021;-62
2021/11/26 10:48:52;;;;;;;16.52;4.93;;;5.70;99.90;;;;;;5048470;28;20029;-62
2021/11/26 10:51:57;;;;;;;16.50;5.15;;;5.70;99.90;;;;;;5053881;28;20025;-60
2021/11/26 11:00:17;;;;;;;21.33;5.43;;;5.70;99.90;;;;;;5051996;28;20039;-60
2021/11/26 11:02:45;;;;;;;15.15;4.82;;;5.70;99.90;;;;;;5052906;28;20033;-58
2021/11/26 11:05:23;;;;;;;15.80;3.95;;;5.70;99.90;;;;;;5049133;28;20084;-62
2021/11/26 11:07:50;;;;;;;21.38;4.18;;;5.70;99.90;;;;;;5046571;28;20483;-61
2021/11/26 11:10:25;;;;;;;15.15;3.70;;;5.80;99.90;;;;;;5051210;28;20025;-63
2021/11/26 11:12:51;;;;;;;12.52;3.30;;;5.80;99.90;;;;;;5049172;28;20016;-62
2021/11/26 11:15:17;;;;;;;13.60;3.55;;;5.80;99.90;;;;;;5045325;28;20439;-61
2021/11/26 11:17:46;;;;;;;13.70;3.35;;;5.80;99.90;;;;;;5052016;28;20079;-62
2021/11/26 11:20:16;;;;;;;9.82;3.17;;;5.80;99.90;;;;;;5050800;28;20019;-62
2021/11/26 11:22:43;;;;;;;20.38;3.67;;;5.90;99.90;;;;;;5052239;28;20086;-61
2021/11/26 11:25:11;;;;;;;17.85;3.97;;;5.90;99.90;;;;;;5048289;28;20071;-61
2021/11/26 11:27:37;;;;;;;9.60;3.22;;;5.90;99.90;;;;;;5052017;28;20346;-61
2021/11/26 11:30:07;;;;;;;10.82;2.78;;;6.00;99.90;;;;;;5052042;28;20151;-59
2021/11/26 11:32:34;;;;;;;11.70;3.10;;;6.00;99.90;;;;;;5051884;28;20410;-61
2021/11/26 11:35:00;;;;;;;11.98;4.65;;;6.00;99.90;;;;;;5051132;28;20025;-62
2021/11/26 11:37:28;;;;;;;17.05;4.22;;;6.00;99.90;;;;;;5047572;28;20109;-63
2021/11/26 11:39:58;;;;;;;9.45;2.80;;;6.00;99.90;;;;;;5047210;28;20131;-61
2021/11/26 11:42:33;;;;;;;11.85;2.58;;;6.10;99.90;;;;;;5050416;28;20032;-61
2021/11/26 11:45:15;;;;;;;11.65;2.80;;;6.10;99.90;;;;;;5050749;28;20024;-63
2021/11/26 11:47:42;;;;;;;7.47;2.33;;;6.10;99.90;;;;;;5052059;28;20028;-63
2021/11/26 11:50:17;;;;;;;5.45;2.05;;;6.10;99.90;;;;;;5051481;28;20116;-62
2021/11/26 11:52:53;;;;;;;12.57;2.72;;;6.10;99.90;;;;;;5051315;28;20086;-61
2021/11/26 11:55:18;;;;;;;9.00;2.03;;;6.10;99.90;;;;;;5051453;28;20433;-61
2021/11/26 11:57:44;;;;;;;7.10;2.50;;;6.20;99.90;;;;;;5051397;28;20033;-63
2021/11/26 12:00:16;;;;;;;8.90;3.78;;;6.20;99.90;;;;;;5051163;28;20120;-62
2021/11/26 12:02:42;;;;;;;9.95;2.13;;;6.10;99.90;;;;;;5050598;28;20032;-59
2021/11/26 12:05:22;;;;;;;8.10;2.20;;;6.20;99.90;;;;;;5050528;28;20115;-60
2021/11/26 12:07:49;;;;;;;11.65;2.13;;;6.20;99.90;;;;;;5031027;28;20047;-61
2021/11/26 12:10:16;;;;;;;9.95;1.83;;;6.30;99.90;;;;;;5048717;28;20104;-63
2021/11/26 12:12:50;;;;;;;6.47;2.25;;;6.30;99.90;;;;;;5049974;28;20116;-57
2021/11/26 12:15:29;;;;;;;8.18;1.90;;;6.30;99.90;;;;;;5044677;28;20028;-62
2021/11/26 12:18:04;;;;;;;7.60;2.10;;;6.30;99.90;;;;;;5047458;28;20033;-62
2021/11/26 12:20:30;;;;;;;14.95;2.40;;;6.30;99.90;;;;;;5044324;28;20422;-61
2021/11/26 12:23:00;;;;;;;8.98;2.70;;;6.30;99.90;;;;;;5030405;28;20037;-63
2021/11/26 12:25:37;;;;;;;7.55;1.80;;;6.30;99.90;;;;;;5045154;28;20027;-61
2021/11/26 12:28:06;;;;;;;12.32;2.28;;;6.30;99.90;;;;;;5050350;28;20039;-61
2021/11/26 12:30:32;;;;;;;9.88;2.30;;;6.30;99.90;;;;;;5051460;28;20039;-61
2021/11/26 12:32:58;;;;;;;7.95;2.70;;;6.40;99.90;;;;;;5049092;28;20021;-62
2021/11/26 12:35:24;;;;;;;20.85;4.88;;;6.30;99.90;;;;;;5047567;28;20063;-61
2021/11/26 12:37:59;;;;;;;5.90;2.10;;;6.30;99.90;;;;;;5049944;28;20037;-59
2021/11/26 12:40:25;;;;;;;8.63;3.42;;;6.30;99.90;;;;;;5047541;28;20114;-62
2021/11/26 12:43:02;;;;;;;6.05;1.70;;;6.30;99.90;;;;;;5049166;28;20056;-61
2021/11/26 12:45:34;;;;;;;9.70;2.25;;;6.40;99.90;;;;;;5049357;28;20017;-61
2021/11/26 12:48:06;;;;;;;10.00;2.05;;;6.40;99.90;;;;;;5046612;28;20033;-62